Time;durP1;ratioP1;P1;durP2;ratioP2;P2;SDS_P1;SDS_P2;PMS_P1;PMS_P2;Temp;Humidity;BMP_temperature;BMP_pressure;BME280_temperature;BME280_humidity;BME280_pressure;Samples;Min_cycle;Max_cycle;Signal;HPM_P1;HPM_P2
2021/04/18 00:01:36;;;;;;;14.70;9.10;;;8.90;99.90;;;;;;4989545;28;20443;-51
2021/04/18 00:04:04;;;;;;;16.13;8.20;;;8.90;99.90;;;;;;4988641;28;20490;-50
2021/04/18 00:06:30;;;;;;;12.03;8.40;;;8.80;99.90;;;;;;4988586;28;20455;-52
2021/04/18 00:08:56;;;;;;;16.67;8.80;;;8.80;99.90;;;;;;4988628;28;20439;-50
2021/04/18 00:11:23;;;;;;;12.60;8.27;;;8.80;99.90;;;;;;4989155;28;20900;-48
2021/04/18 00:13:49;;;;;;;12.97;8.43;;;8.80;99.90;;;;;;4988371;28;20872;-52
2021/04/18 00:16:17;;;;;;;18.70;8.87;;;8.80;99.90;;;;;;4988732;28;20454;-49
2021/04/18 00:18:43;;;;;;;10.03;7.53;;;8.80;99.90;;;;;;4988241;28;20534;-49
2021/04/18 00:21:10;;;;;;;16.33;8.80;;;8.80;99.90;;;;;;4988141;28;20479;-51
2021/04/18 00:23:36;;;;;;;12.87;8.10;;;8.80;99.90;;;;;;4988590;28;20443;-49
2021/04/18 00:26:02;;;;;;;16.23;8.20;;;8.80;99.90;;;;;;4988317;28;20451;-50
2021/04/18 00:28:30;;;;;;;15.07;8.97;;;8.70;99.90;;;;;;4988731;28;20451;-48
2021/04/18 00:30:56;;;;;;;19.10;8.93;;;8.70;99.90;;;;;;4988354;28;20454;-48
2021/04/18 00:33:22;;;;;;;15.10;8.53;;;8.70;99.90;;;;;;4987986;28;20498;-48
2021/04/18 00:35:49;;;;;;;14.47;8.60;;;8.60;99.90;;;;;;4988026;28;20889;-50
2021/04/18 00:38:15;;;;;;;18.33;11.00;;;8.60;99.90;;;;;;4988033;28;20466;-50
2021/04/18 00:40:41;;;;;;;17.47;9.77;;;8.60;99.90;;;;;;4988891;28;20463;-51
2021/04/18 00:43:07;;;;;;;16.00;10.07;;;8.60;99.90;;;;;;4988878;28;20454;-49
2021/04/18 00:45:34;;;;;;;14.10;8.90;;;8.60;99.90;;;;;;4989151;28;20455;-47
2021/04/18 00:48:01;;;;;;;21.70;11.90;;;8.60;99.90;;;;;;4989424;28;20451;-45
2021/04/18 00:50:31;;;;;;;13.67;8.70;;;8.60;99.90;;;;;;4989927;28;20503;-49
2021/04/18 00:52:58;;;;;;;18.80;9.13;;;8.60;99.90;;;;;;4988552;28;20482;-46
2021/04/18 00:55:26;;;;;;;24.53;10.70;;;8.60;99.90;;;;;;4989055;28;20447;-51
2021/04/18 00:57:54;;;;;;;15.93;9.73;;;8.50;99.90;;;;;;4989265;28;20451;-48
2021/04/18 01:00:21;;;;;;;17.70;10.00;;;8.60;99.90;;;;;;4989356;28;20443;-48
2021/04/18 01:02:48;;;;;;;15.50;10.07;;;8.60;99.90;;;;;;4988691;28;20454;-48
2021/04/18 01:05:15;;;;;;;17.30;9.30;;;8.60;99.90;;;;;;4988455;28;20446;-50
2021/04/18 01:07:41;;;;;;;12.63;8.63;;;8.50;99.90;;;;;;4987774;28;20439;-48
2021/04/18 01:10:10;;;;;;;17.40;8.43;;;8.50;99.90;;;;;;4988406;28;20443;-52
2021/04/18 01:12:37;;;;;;;14.17;9.30;;;8.60;99.90;;;;;;4988665;28;20482;-50
2021/04/18 01:15:04;;;;;;;17.17;9.60;;;8.60;99.90;;;;;;4988263;28;20960;-52
2021/04/18 01:17:30;;;;;;;12.93;7.87;;;8.60;99.90;;;;;;4988682;28;20785;-49
2021/04/18 01:19:57;;;;;;;17.80;8.23;;;8.70;99.90;;;;;;4988401;28;20490;-49
2021/04/18 01:22:24;;;;;;;16.47;8.87;;;8.60;99.90;;;;;;4988518;28;20447;-48
2021/04/18 01:24:51;;;;;;;12.07;8.30;;;8.70;99.90;;;;;;4988058;28;20522;-48
2021/04/18 01:27:19;;;;;;;18.17;11.33;;;8.70;99.90;;;;;;4988601;28;20447;-50
2021/04/18 01:29:45;;;;;;;17.93;9.40;;;8.70;99.90;;;;;;4988378;28;20516;-51
2021/04/18 01:32:11;;;;;;;14.90;8.63;;;8.70;99.90;;;;;;4988205;28;20490;-48
2021/04/18 01:34:41;;;;;;;22.13;9.10;;;8.80;99.90;;;;;;4988671;28;20439;-51
2021/04/18 01:37:08;;;;;;;13.93;8.23;;;8.70;99.90;;;;;;4987411;28;20446;-50
2021/04/18 01:39:35;;;;;;;11.90;9.00;;;8.80;99.90;;;;;;4988056;28;20524;-49
2021/04/18 01:42:02;;;;;;;17.33;9.97;;;8.80;99.90;;;;;;4987800;28;20442;-46
2021/04/18 01:44:28;;;;;;;15.70;8.70;;;8.80;99.90;;;;;;4988434;28;20478;-46
2021/04/18 01:46:54;;;;;;;18.00;9.87;;;8.90;99.90;;;;;;4969613;28;20464;-49
2021/04/18 01:49:21;;;;;;;14.93;8.17;;;8.90;99.90;;;;;;4968258;29;20447;-51
2021/04/18 01:51:47;;;;;;;22.23;9.40;;;8.80;99.90;;;;;;4959318;28;20919;-52
2021/04/18 01:54:13;;;;;;;14.30;8.30;;;8.80;99.90;;;;;;4952334;28;20533;-50
2021/04/18 01:56:40;;;;;;;16.53;9.67;;;8.80;99.90;;;;;;4955008;29;20468;-47
2021/04/18 01:59:06;;;;;;;17.37;8.43;;;8.80;99.90;;;;;;4950736;28;20540;-51
2021/04/18 02:01:36;;;;;;;18.90;10.00;;;8.80;99.90;;;;;;4960943;29;20452;-49
2021/04/18 02:04:17;;;;;;;18.03;9.13;;;8.80;99.90;;;;;;4960217;29;20520;-50
2021/04/18 02:06:43;;;;;;;15.67;9.70;;;8.90;99.90;;;;;;4952071;29;20750;-52
2021/04/18 02:09:09;;;;;;;19.00;10.70;;;8.80;99.90;;;;;;4940825;29;20468;-52
2021/04/18 02:11:36;;;;;;;15.03;7.53;;;8.90;99.90;;;;;;4941040;29;20448;-51
2021/04/18 02:14:04;;;;;;;12.67;9.33;;;8.80;99.90;;;;;;4940358;29;20488;-51
2021/04/18 02:16:30;;;;;;;24.47;10.50;;;8.80;99.90;;;;;;4941013;29;20963;-49
2021/04/18 02:18:56;;;;;;;15.80;9.27;;;8.80;99.90;;;;;;4940158;29;20485;-51
2021/04/18 02:21:22;;;;;;;21.17;8.57;;;8.80;99.90;;;;;;4942429;29;20784;-47
2021/04/18 02:23:48;;;;;;;15.20;9.37;;;8.80;99.90;;;;;;4963860;29;20482;-46
2021/04/18 02:26:15;;;;;;;15.17;9.80;;;8.80;99.90;;;;;;4960122;29;20780;-52
2021/04/18 02:28:41;;;;;;;15.10;10.30;;;8.80;99.90;;;;;;4957956;29;20484;-52
2021/04/18 02:31:08;;;;;;;18.27;9.70;;;8.80;99.90;;;;;;4961929;29;20467;-51
2021/04/18 02:33:34;;;;;;;17.20;9.20;;;8.90;99.90;;;;;;4974774;28;20495;-53
2021/04/18 02:36:00;;;;;;;16.80;10.90;;;8.80;99.90;;;;;;4966949;28;20446;-51
2021/04/18 02:38:26;;;;;;;14.03;9.67;;;8.90;99.90;;;;;;4973493;28;20944;-49
2021/04/18 02:40:53;;;;;;;15.93;10.70;;;8.90;99.90;;;;;;4973292;28;20450;-52
2021/04/18 02:43:19;;;;;;;16.90;10.03;;;8.90;99.90;;;;;;4968339;28;20829;-53
2021/04/18 02:45:45;;;;;;;17.20;9.83;;;8.90;99.90;;;;;;4975158;28;20487;-53
2021/04/18 02:48:13;;;;;;;13.43;8.93;;;8.80;99.90;;;;;;4971444;28;20455;-53
2021/04/18 02:53:14;;;;;;;20.07;9.60;;;8.90;99.90;;;;;;5380717;23;20506;-50
2021/04/18 02:55:41;;;;;;;25.10;11.63;;;8.80;99.90;;;;;;4987611;28;20454;-52
2021/04/18 02:58:07;;;;;;;23.10;11.27;;;8.80;99.90;;;;;;4997815;28;20457;-52
2021/04/18 03:00:33;;;;;;;22.67;11.30;;;8.80;99.90;;;;;;4990052;28;20438;-50
2021/04/18 03:03:00;;;;;;;15.20;11.07;;;8.80;99.90;;;;;;5570025;23;21098;-45
2021/04/18 03:05:27;;;;;;;17.37;11.30;;;8.80;99.90;;;;;;5637360;23;20651;-47
2021/04/18 03:07:53;;;;;;;23.10;12.43;;;8.70;99.90;;;;;;4988933;28;20782;-50
2021/04/18 03:10:20;;;;;;;21.20;10.70;;;8.80;99.90;;;;;;5944898;23;20448;-45
2021/04/18 03:12:46;;;;;;;18.10;12.70;;;8.80;99.90;;;;;;4972418;28;20491;-51
2021/04/18 03:15:16;;;;;;;21.30;10.87;;;8.80;99.90;;;;;;4956942;29;20440;-55
2021/04/18 03:17:46;;;;;;;24.50;12.10;;;8.80;99.90;;;;;;4943082;29;20461;-53
2021/04/18 03:20:17;;;;;;;17.83;10.67;;;8.80;99.90;;;;;;4960711;29;20432;-49
2021/04/18 03:22:44;;;;;;;21.73;12.87;;;8.80;99.90;;;;;;4956551;28;20487;-48
2021/04/18 03:25:11;;;;;;;20.83;12.33;;;8.70;99.90;;;;;;4946612;29;20467;-54
2021/04/18 03:27:38;;;;;;;18.70;12.50;;;8.70;99.90;;;;;;4960663;28;20453;-50
2021/04/18 03:30:05;;;;;;;20.40;12.80;;;8.70;99.90;;;;;;4952160;28;20502;-52
2021/04/18 03:32:32;;;;;;;19.10;12.83;;;8.70;99.90;;;;;;4948300;28;20487;-54
2021/04/18 03:34:58;;;;;;;19.40;12.97;;;8.70;99.90;;;;;;4953105;29;20977;-51
2021/04/18 03:37:24;;;;;;;22.03;14.37;;;8.60;99.90;;;;;;4949683;29;20445;-48
2021/04/18 03:39:51;;;;;;;23.00;13.60;;;8.60;99.90;;;;;;4950304;29;20464;-51
2021/04/18 03:42:18;;;;;;;22.27;13.97;;;8.50;99.90;;;;;;4947096;29;20441;-51
2021/04/18 03:44:44;;;;;;;23.67;12.70;;;8.50;99.90;;;;;;4951759;29;20455;-46
2021/04/18 03:47:10;;;;;;;31.63;16.57;;;8.40;99.90;;;;;;4946602;29;20464;-49
2021/04/18 03:54:47;;;;;;;22.43;14.50;;;8.30;99.90;;;;;;5089774;23;20821;-47
2021/04/18 03:57:14;;;;;;;21.33;15.87;;;8.30;99.90;;;;;;4957807;29;20496;-51
2021/04/18 03:59:40;;;;;;;28.10;16.90;;;8.30;99.90;;;;;;4958010;29;20537;-46
2021/04/18 04:02:06;;;;;;;27.10;15.80;;;8.30;99.90;;;;;;4957720;29;20476;-46
2021/04/18 04:04:33;;;;;;;28.50;17.37;;;8.30;99.90;;;;;;4957679;29;20789;-49
2021/04/18 04:06:59;;;;;;;31.60;17.77;;;8.30;99.90;;;;;;4957872;29;20459;-51
2021/04/18 04:45:41;;;;;;;31.50;18.87;;;8.00;99.90;;;;;;5942726;23;20400;-53
2021/04/18 04:48:07;;;;;;;30.13;17.10;;;8.00;99.90;;;;;;4982925;28;20451;-53
2021/04/18 04:50:33;;;;;;;40.40;18.83;;;8.10;99.90;;;;;;4976417;28;20458;-52
2021/04/18 04:53:00;;;;;;;35.93;17.90;;;8.10;99.90;;;;;;4976325;28;20483;-48
2021/04/18 04:55:26;;;;;;;35.40;18.10;;;8.00;99.90;;;;;;4976320;28;20443;-52
2021/04/18 04:57:52;;;;;;;31.93;20.00;;;8.00;99.90;;;;;;4975926;28;20510;-48
2021/04/18 05:00:19;;;;;;;30.30;16.60;;;8.00;99.90;;;;;;4975834;28;20446;-48
2021/04/18 05:02:46;;;;;;;28.90;17.93;;;8.00;99.90;;;;;;4975867;28;20466;-53
2021/04/18 05:05:13;;;;;;;29.70;16.53;;;8.00;99.90;;;;;;4975945;28;20431;-52
2021/04/18 05:07:39;;;;;;;35.53;16.60;;;8.00;99.90;;;;;;4976082;28;20462;-49
2021/04/18 05:10:06;;;;;;;34.50;18.47;;;8.10;99.90;;;;;;4975771;28;20471;-50
2021/04/18 05:12:33;;;;;;;38.33;18.43;;;8.10;99.90;;;;;;4975934;28;20486;-51
2021/04/18 05:14:59;;;;;;;37.27;18.90;;;8.10;99.90;;;;;;4975685;28;20450;-45
2021/04/18 05:17:26;;;;;;;40.70;19.70;;;8.10;99.90;;;;;;4975471;28;20939;-49
2021/04/18 06:29:36;;;;;;;33.90;18.30;;;8.30;99.90;;;;;;5732223;23;20471;-53
2021/04/18 06:32:02;;;;;;;40.63;20.50;;;8.30;99.90;;;;;;4988617;28;20463;-52
2021/04/18 06:34:28;;;;;;;49.47;20.80;;;8.30;99.90;;;;;;4974716;28;20462;-48
2021/04/18 06:36:54;;;;;;;33.67;20.50;;;8.30;99.90;;;;;;4974897;28;20521;-49
2021/04/18 06:39:21;;;;;;;41.27;20.40;;;8.30;99.90;;;;;;4975634;28;20442;-53
2021/04/18 06:41:52;;;;;;;36.43;19.93;;;8.30;99.90;;;;;;4977425;28;20478;-46
2021/04/18 06:44:18;;;;;;;47.17;21.17;;;8.30;99.90;;;;;;4978223;28;20893;-47
2021/04/18 06:46:45;;;;;;;46.83;21.53;;;8.30;99.90;;;;;;4978031;28;20457;-50
2021/04/18 06:49:14;;;;;;;41.87;21.40;;;8.30;99.90;;;;;;4975909;28;20800;-45
2021/04/18 06:51:40;;;;;;;41.13;21.73;;;8.40;99.90;;;;;;4974663;28;20455;-50
2021/04/18 06:54:07;;;;;;;36.80;20.40;;;8.40;99.90;;;;;;4974663;28;20487;-51
2021/04/18 06:56:33;;;;;;;49.60;22.20;;;8.40;99.90;;;;;;4974599;28;20515;-50
2021/04/18 06:59:00;;;;;;;37.67;20.60;;;8.40;99.90;;;;;;4974581;28;20458;-49
2021/04/18 07:33:04;;;;;;;44.33;22.27;;;8.10;99.90;;;;;;5783570;23;20514;-49
2021/04/18 07:40:49;;;;;;;31.97;17.83;;;8.20;99.90;;;;;;5358165;23;20523;-50
2021/04/18 07:43:18;;;;;;;31.77;17.57;;;8.20;99.90;;;;;;4941078;29;20452;-51
2021/04/18 07:45:45;;;;;;;31.60;17.43;;;8.20;99.90;;;;;;4939165;29;20455;-52
2021/04/18 07:48:14;;;;;;;34.20;19.10;;;8.20;99.90;;;;;;4938984;29;20453;-46
2021/04/18 07:50:42;;;;;;;24.93;15.90;;;8.20;99.90;;;;;;4936222;29;20449;-55
2021/04/18 07:55:44;;;;;;;35.00;15.90;;;8.20;99.90;;;;;;5468883;23;20562;-49
2021/04/18 07:58:11;;;;;;;28.10;16.47;;;8.20;99.90;;;;;;4948334;29;20516;-52
2021/04/18 08:00:38;;;;;;;26.57;14.57;;;8.20;99.90;;;;;;4954698;29;20483;-45
2021/04/18 08:03:05;;;;;;;29.90;16.07;;;8.20;99.90;;;;;;4952150;29;20463;-51
2021/04/18 08:05:33;;;;;;;27.40;16.17;;;8.20;99.90;;;;;;4955341;29;20467;-48
2021/04/18 08:08:05;;;;;;;29.50;16.07;;;8.30;99.90;;;;;;4948537;29;20476;-53
2021/04/18 08:10:34;;;;;;;26.60;15.50;;;8.30;99.90;;;;;;4954597;29;20795;-52
2021/04/18 08:13:05;;;;;;;23.27;14.70;;;8.30;99.90;;;;;;4957098;28;20491;-50
2021/04/18 08:15:32;;;;;;;25.93;15.13;;;8.30;99.90;;;;;;4957647;29;20562;-52
2021/04/18 08:18:07;;;;;;;26.27;15.87;;;8.30;99.90;;;;;;4957862;28;20793;-46
2021/04/18 08:20:36;;;;;;;27.70;15.23;;;8.30;99.90;;;;;;4957760;29;20509;-49
2021/04/18 08:23:05;;;;;;;25.63;14.90;;;8.30;99.90;;;;;;4958132;28;20464;-53
2021/04/18 08:25:32;;;;;;;21.80;13.47;;;8.30;99.90;;;;;;4957944;28;20482;-49
2021/04/18 08:28:08;;;;;;;22.30;13.57;;;8.30;99.90;;;;;;4954216;28;20460;-51
2021/04/18 08:31:00;;;;;;;26.17;15.23;;;8.40;99.90;;;;;;4978759;28;20431;-54
2021/04/18 08:33:44;;;;;;;23.90;13.90;;;8.40;99.90;;;;;;4980175;28;20463;-54
2021/04/18 08:36:17;;;;;;;23.60;12.70;;;8.40;99.90;;;;;;4980267;29;20427;-55
2021/04/18 08:38:44;;;;;;;22.10;12.47;;;8.50;99.90;;;;;;4980218;29;20487;-54
2021/04/18 08:41:14;;;;;;;19.87;13.27;;;8.50;99.90;;;;;;4980470;28;20451;-54
2021/04/18 08:43:41;;;;;;;18.87;12.10;;;8.50;99.90;;;;;;4980115;29;20431;-57
2021/04/18 08:46:07;;;;;;;24.30;12.23;;;8.60;99.90;;;;;;4979776;28;20452;-49
2021/04/18 08:48:34;;;;;;;16.80;11.60;;;8.60;99.90;;;;;;4980368;29;20439;-56
2021/04/18 09:39:59;;;;;;;14.70;9.77;;;9.20;99.90;;;;;;5036767;23;20483;-49
2021/04/18 09:42:27;;;;;;;17.67;12.83;;;9.40;99.90;;;;;;4975267;28;20486;-51
2021/04/18 09:45:07;;;;;;;15.70;11.30;;;9.50;99.90;;;;;;4975314;28;20459;-49
2021/04/18 09:47:33;;;;;;;14.30;10.40;;;9.60;99.90;;;;;;4975511;28;20848;-52
2021/04/18 09:50:04;;;;;;;12.20;9.70;;;9.70;99.90;;;;;;4975161;28;20450;-49
2021/04/18 09:52:36;;;;;;;14.83;10.07;;;9.80;99.90;;;;;;4975345;28;20470;-54
2021/04/18 09:55:12;;;;;;;14.67;8.43;;;10.00;99.90;;;;;;4975207;28;20929;-52
2021/04/18 09:57:44;;;;;;;12.50;8.43;;;10.20;99.90;;;;;;4975319;28;20458;-52
2021/04/18 10:00:18;;;;;;;14.50;9.00;;;10.40;99.90;;;;;;4975331;28;20772;-52
2021/04/18 10:03:02;;;;;;;12.70;8.97;;;10.70;99.90;;;;;;4974865;28;20482;-49
2021/04/18 10:05:29;;;;;;;16.33;9.57;;;10.90;99.90;;;;;;4975324;28;20463;-50
2021/04/18 10:08:19;;;;;;;11.97;9.07;;;11.20;99.90;;;;;;4974956;28;20450;-50
2021/04/18 10:10:47;;;;;;;9.17;8.07;;;11.40;99.90;;;;;;4974942;28;20470;-48
2021/04/18 10:13:14;;;;;;;10.63;9.53;;;11.60;99.90;;;;;;4975196;28;20585;-50
2021/04/18 10:15:54;;;;;;;10.47;8.70;;;12.10;99.90;;;;;;4974809;28;20442;-47
2021/04/18 10:18:21;;;;;;;9.97;8.00;;;12.70;99.90;;;;;;4974700;28;20505;-48
2021/04/18 10:20:48;;;;;;;9.23;8.03;;;13.30;99.90;;;;;;4975828;28;20505;-51
2021/04/18 10:23:14;;;;;;;10.40;8.07;;;13.90;99.90;;;;;;4975331;28;20490;-49
2021/04/18 10:25:41;;;;;;;8.97;8.03;;;14.70;99.90;;;;;;4975669;28;20772;-49
2021/04/18 10:28:11;;;;;;;11.27;8.87;;;15.00;99.90;;;;;;4975746;28;20458;-54
2021/04/18 10:30:39;;;;;;;8.30;7.50;;;15.10;99.90;;;;;;5006265;28;20799;-49
2021/04/18 10:33:07;;;;;;;8.53;7.40;;;14.70;99.90;;;;;;5026531;28;20532;-51
2021/04/18 17:31:41;;;;;;;10.97;7.00;;;11.50;99.90;;;;;;5050861;23;20488;-47
2021/04/18 17:34:08;;;;;;;10.37;7.20;;;11.50;99.90;;;;;;4993123;28;20569;-50
2021/04/18 17:36:35;;;;;;;12.07;8.43;;;11.50;99.90;;;;;;5003299;28;20438;-50
2021/04/18 17:39:02;;;;;;;9.90;7.60;;;11.40;99.90;;;;;;5003162;28;21033;-51
2021/04/18 17:41:29;;;;;;;9.50;6.87;;;11.30;99.90;;;;;;4998776;28;20849;-53
2021/04/18 17:43:58;;;;;;;9.67;7.00;;;11.30;99.90;;;;;;4997795;28;20450;-49
2021/04/18 17:46:25;;;;;;;13.07;6.87;;;11.20;99.90;;;;;;4998137;28;20978;-49
2021/04/18 17:48:52;;;;;;;7.83;6.77;;;11.20;99.90;;;;;;4998089;28;20537;-52
2021/04/18 17:51:19;;;;;;;9.13;6.93;;;11.20;99.90;;;;;;4996836;28;20958;-52
2021/04/18 17:53:45;;;;;;;10.77;7.60;;;11.20;99.90;;;;;;4996275;28;20487;-52
2021/04/18 17:56:12;;;;;;;9.67;7.17;;;11.20;99.90;;;;;;4995899;28;20477;-47
2021/04/18 17:58:39;;;;;;;9.00;7.10;;;11.20;99.90;;;;;;4997551;28;20488;-50
2021/04/18 18:01:05;;;;;;;9.13;6.80;;;11.20;99.90;;;;;;5000614;28;20479;-51
2021/04/18 18:03:32;;;;;;;12.10;6.20;;;11.20;99.90;;;;;;5002643;28;20452;-49
2021/04/18 18:05:59;;;;;;;11.27;7.60;;;11.20;99.90;;;;;;5002275;28;20545;-52
2021/04/18 18:08:27;;;;;;;7.93;6.97;;;11.20;99.90;;;;;;5006571;28;20446;-52
2021/04/18 18:10:54;;;;;;;12.20;7.20;;;11.20;99.90;;;;;;5002642;28;20523;-48
2021/04/18 18:13:20;;;;;;;7.93;6.20;;;11.20;99.90;;;;;;5002586;28;20560;-52
2021/04/18 18:15:47;;;;;;;11.67;7.07;;;11.30;99.90;;;;;;5002700;28;20442;-50
2021/04/18 18:18:14;;;;;;;10.90;7.67;;;11.30;99.90;;;;;;5002512;28;20468;-52
2021/04/18 18:20:40;;;;;;;12.83;9.03;;;11.30;99.90;;;;;;5003186;28;20454;-50
2021/04/18 18:23:08;;;;;;;15.20;9.03;;;11.40;99.90;;;;;;5003721;28;20465;-51
2021/04/18 18:25:37;;;;;;;11.00;7.70;;;11.30;99.90;;;;;;5003318;28;20544;-54
2021/04/18 18:28:04;;;;;;;15.07;8.03;;;11.40;99.90;;;;;;5003247;28;20544;-51
2021/04/18 18:30:31;;;;;;;12.50;7.47;;;11.30;99.90;;;;;;4998079;28;20486;-49
2021/04/18 18:32:58;;;;;;;13.07;7.37;;;11.40;99.90;;;;;;4973440;28;20502;-51
2021/04/18 18:35:25;;;;;;;12.37;7.83;;;11.40;99.90;;;;;;4966409;28;20456;-51
2021/04/18 18:37:53;;;;;;;13.30;7.97;;;11.40;99.90;;;;;;4970026;28;20462;-49
2021/04/18 18:40:21;;;;;;;11.80;9.00;;;11.40;99.90;;;;;;4967965;28;20555;-55
2021/04/18 18:42:48;;;;;;;9.23;7.30;;;11.30;99.90;;;;;;4972859;29;20474;-51
2021/04/18 18:45:17;;;;;;;12.30;8.13;;;11.30;99.90;;;;;;4973611;28;20756;-49
2021/04/18 18:47:44;;;;;;;14.97;9.80;;;11.30;99.90;;;;;;4973350;29;20920;-47
2021/04/18 18:50:13;;;;;;;12.00;9.20;;;11.30;99.90;;;;;;4964036;29;20479;-49
2021/04/18 18:52:48;;;;;;;12.63;9.03;;;11.20;99.90;;;;;;4966062;29;20451;-52
2021/04/18 18:55:17;;;;;;;16.53;10.30;;;11.20;99.90;;;;;;4972545;29;20447;-51
2021/04/18 18:57:45;;;;;;;15.63;10.30;;;11.30;99.90;;;;;;4966466;29;20475;-54
2021/04/18 19:00:14;;;;;;;13.50;10.77;;;11.20;99.90;;;;;;4963128;29;20432;-52
2021/04/18 19:02:41;;;;;;;16.37;9.90;;;11.20;99.90;;;;;;4963923;28;20888;-52
2021/04/18 19:05:09;;;;;;;13.33;8.40;;;11.20;99.90;;;;;;4969005;29;20844;-54
2021/04/18 19:07:36;;;;;;;11.87;9.40;;;11.20;99.90;;;;;;4984231;28;20478;-48
2021/04/18 19:10:03;;;;;;;13.70;10.20;;;11.20;99.90;;;;;;4991250;28;20439;-50
2021/04/18 19:12:31;;;;;;;13.27;9.47;;;11.20;99.90;;;;;;4988298;28;20958;-54
2021/04/18 19:14:59;;;;;;;14.37;9.90;;;11.20;99.90;;;;;;4985291;28;20524;-52
2021/04/18 19:17:25;;;;;;;12.13;9.50;;;11.20;99.90;;;;;;4980194;28;20470;-48
2021/04/18 19:19:52;;;;;;;11.70;9.00;;;11.20;99.90;;;;;;4981278;28;20522;-50
2021/04/18 19:22:18;;;;;;;12.90;8.83;;;11.20;99.90;;;;;;4989440;28;20498;-54
2021/04/18 19:24:45;;;;;;;12.60;8.90;;;11.10;99.90;;;;;;4986792;28;20517;-48
2021/04/18 19:27:11;;;;;;;13.03;8.93;;;11.10;99.90;;;;;;4983983;28;20478;-52
2021/04/18 19:29:38;;;;;;;14.40;9.77;;;11.00;99.90;;;;;;4980753;28;20462;-54
2021/04/18 19:32:07;;;;;;;13.10;9.40;;;11.00;99.90;;;;;;4998508;28;20469;-48
2021/04/18 19:34:33;;;;;;;14.63;8.93;;;11.00;99.90;;;;;;5000314;28;20572;-47
2021/04/18 19:37:00;;;;;;;23.63;11.90;;;10.90;99.90;;;;;;5000905;28;20783;-52
2021/04/18 19:39:35;;;;;;;15.37;10.27;;;10.90;99.90;;;;;;5005824;28;20518;-52
2021/04/18 19:42:02;;;;;;;13.17;9.63;;;10.80;99.90;;;;;;5019501;28;20437;-48
2021/04/18 19:44:28;;;;;;;11.70;8.97;;;10.80;99.90;;;;;;5020160;28;20434;-51
2021/04/18 19:46:55;;;;;;;19.63;9.10;;;10.70;99.90;;;;;;5020140;28;20446;-52
2021/04/18 19:49:22;;;;;;;15.20;8.87;;;10.70;99.90;;;;;;5020339;28;20449;-52
2021/04/18 19:51:49;;;;;;;14.23;10.27;;;10.60;99.90;;;;;;5020392;28;20461;-55
2021/04/18 19:54:16;;;;;;;13.40;8.47;;;10.60;99.90;;;;;;5020466;28;20474;-51
2021/04/18 19:56:42;;;;;;;18.23;11.13;;;10.60;99.90;;;;;;5020470;28;20497;-51
2021/04/18 19:59:09;;;;;;;15.60;9.10;;;10.50;99.90;;;;;;5020370;28;20429;-49
2021/04/18 20:01:36;;;;;;;17.60;9.17;;;10.50;99.90;;;;;;5020147;28;20450;-52
2021/04/18 20:04:03;;;;;;;13.43;10.20;;;10.50;99.90;;;;;;5018883;28;20469;-51
2021/04/18 20:06:30;;;;;;;16.30;11.30;;;10.40;99.90;;;;;;5028281;28;20477;-53
2021/04/18 20:08:57;;;;;;;15.40;11.00;;;10.40;99.90;;;;;;5019908;28;20518;-49
2021/04/18 20:11:24;;;;;;;14.63;9.57;;;10.40;99.90;;;;;;5019501;28;20456;-49
2021/04/18 20:13:51;;;;;;;20.10;10.77;;;10.40;99.90;;;;;;5011252;28;20497;-47
2021/04/18 20:16:17;;;;;;;12.47;9.20;;;10.30;99.90;;;;;;5018535;28;20430;-48
2021/04/18 20:18:44;;;;;;;16.33;10.50;;;10.30;99.90;;;;;;5018710;28;20454;-52
2021/04/18 20:21:11;;;;;;;15.30;10.50;;;10.30;99.90;;;;;;5019215;28;20462;-50
2021/04/18 20:23:39;;;;;;;15.40;9.63;;;10.20;99.90;;;;;;5018870;28;20442;-51
2021/04/18 20:26:06;;;;;;;15.83;9.70;;;10.20;99.90;;;;;;5018692;28;20438;-54
2021/04/18 20:28:33;;;;;;;18.13;8.13;;;10.20;99.90;;;;;;5018905;28;20446;-52
2021/04/18 20:31:00;;;;;;;14.90;10.50;;;10.20;99.90;;;;;;5009900;28;20505;-53
2021/04/18 20:33:27;;;;;;;14.10;9.50;;;10.10;99.90;;;;;;4999343;28;20478;-51
2021/04/18 20:35:54;;;;;;;16.17;9.80;;;10.10;99.90;;;;;;4999210;28;20443;-54
2021/04/18 20:38:21;;;;;;;15.37;9.60;;;10.10;99.90;;;;;;4999090;28;20458;-47
2021/04/18 20:40:49;;;;;;;17.63;11.00;;;10.10;99.90;;;;;;4999224;28;20466;-53
2021/04/18 20:43:15;;;;;;;13.80;9.93;;;10.10;99.90;;;;;;4998384;28;20450;-54
2021/04/18 20:45:42;;;;;;;14.70;9.53;;;10.10;99.90;;;;;;4998723;28;20447;-53
2021/04/18 20:48:09;;;;;;;11.00;8.30;;;10.00;99.90;;;;;;4998588;28;20435;-54
2021/04/18 20:50:36;;;;;;;14.50;11.30;;;10.00;99.90;;;;;;4998442;28;20439;-55
2021/04/18 20:53:03;;;;;;;11.63;8.97;;;10.00;99.90;;;;;;4998375;28;20466;-52
2021/04/18 20:55:29;;;;;;;13.53;9.30;;;10.00;99.90;;;;;;4999004;28;20530;-54
2021/04/18 20:57:57;;;;;;;12.13;8.97;;;10.00;99.90;;;;;;4998612;28;20434;-53
2021/04/18 21:00:25;;;;;;;12.43;8.73;;;10.00;99.90;;;;;;4998857;28;20466;-55
2021/04/18 21:02:51;;;;;;;11.73;7.93;;;9.90;99.90;;;;;;4999676;28;20454;-53
2021/04/18 21:05:19;;;;;;;12.80;8.23;;;10.00;99.90;;;;;;4999969;28;20431;-53
2021/04/18 21:07:48;;;;;;;17.60;10.10;;;10.00;99.90;;;;;;4999545;28;20441;-52
2021/04/18 21:10:15;;;;;;;14.57;8.63;;;9.90;99.90;;;;;;4999033;28;20454;-50
2021/04/18 21:12:42;;;;;;;17.23;10.30;;;9.90;99.90;;;;;;4999250;28;20789;-51
2021/04/18 21:15:11;;;;;;;13.37;9.47;;;9.90;99.90;;;;;;4998679;28;20494;-54
2021/04/18 21:17:38;;;;;;;11.67;8.70;;;9.90;99.90;;;;;;4988407;28;20816;-53
2021/04/18 21:20:06;;;;;;;16.03;9.57;;;9.90;99.90;;;;;;4977936;28;20511;-51
2021/04/18 21:22:35;;;;;;;17.23;9.40;;;9.80;99.90;;;;;;4978814;28;20792;-51
2021/04/18 21:25:01;;;;;;;15.93;9.07;;;9.80;99.90;;;;;;4978864;28;20456;-51
2021/04/18 21:27:29;;;;;;;13.07;7.73;;;9.80;99.90;;;;;;4978395;28;20525;-56
2021/04/18 21:29:56;;;;;;;11.30;8.87;;;9.80;99.90;;;;;;4978475;28;20458;-54
2021/04/18 21:32:23;;;;;;;15.20;9.20;;;9.80;99.90;;;;;;4978634;28;20467;-55
2021/04/18 21:34:49;;;;;;;13.43;9.60;;;9.80;99.90;;;;;;4976699;28;20483;-53
2021/04/18 21:37:16;;;;;;;15.77;8.13;;;9.80;99.90;;;;;;4976881;28;20462;-52
2021/04/18 21:39:45;;;;;;;11.93;8.60;;;9.80;99.90;;;;;;4976739;28;20545;-53
2021/04/18 21:42:11;;;;;;;13.77;10.23;;;9.80;99.90;;;;;;4977072;28;20459;-54
2021/04/18 21:44:38;;;;;;;14.00;9.33;;;9.70;99.90;;;;;;4977139;28;20451;-50
2021/04/18 21:47:04;;;;;;;13.07;9.07;;;9.70;99.90;;;;;;4976860;28;20465;-52
2021/04/18 21:49:31;;;;;;;10.50;8.83;;;9.70;99.90;;;;;;4977076;28;20477;-49
2021/04/18 21:51:59;;;;;;;15.43;9.73;;;9.70;99.90;;;;;;4977613;28;20455;-54
2021/04/18 21:54:27;;;;;;;16.20;10.33;;;9.70;99.90;;;;;;4976960;28;20991;-53
2021/04/18 21:56:55;;;;;;;20.03;10.53;;;9.70;99.90;;;;;;4976741;28;20529;-49
2021/04/18 21:59:21;;;;;;;13.83;9.30;;;9.70;99.90;;;;;;4977330;28;20773;-49
2021/04/18 22:01:48;;;;;;;16.30;10.63;;;9.70;99.90;;;;;;4976437;28;20481;-51
2021/04/18 22:04:14;;;;;;;15.93;10.10;;;9.70;99.90;;;;;;4976945;28;20455;-53
2021/04/18 22:06:42;;;;;;;14.43;10.03;;;9.70;99.90;;;;;;4976634;28;20454;-48
2021/04/18 22:09:09;;;;;;;16.37;9.67;;;9.70;99.90;;;;;;4976827;28;20443;-51
2021/04/18 22:11:35;;;;;;;19.67;11.53;;;9.60;99.90;;;;;;4976089;28;20517;-50
2021/04/18 22:14:02;;;;;;;15.63;10.93;;;9.60;99.90;;;;;;4976776;28;20483;-48
2021/04/18 22:16:28;;;;;;;18.63;10.60;;;9.70;99.90;;;;;;4976429;28;20435;-50
2021/04/18 22:18:54;;;;;;;17.40;10.80;;;9.70;99.90;;;;;;4976879;28;20462;-54
2021/04/18 22:21:21;;;;;;;14.00;11.80;;;9.60;99.90;;;;;;4976888;28;20451;-48
2021/04/18 22:23:48;;;;;;;18.57;10.27;;;9.70;99.90;;;;;;4977042;28;20453;-50
2021/04/18 22:26:14;;;;;;;15.47;10.70;;;9.60;99.90;;;;;;4976860;28;20463;-53
2021/04/18 22:28:40;;;;;;;17.57;12.17;;;9.70;99.90;;;;;;4976310;28;20463;-52
2021/04/18 22:31:06;;;;;;;19.93;12.20;;;9.70;99.90;;;;;;4976459;28;20859;-53
2021/04/18 22:33:33;;;;;;;18.70;11.03;;;9.60;99.90;;;;;;4976465;28;20490;-49
2021/04/18 22:35:59;;;;;;;16.63;11.47;;;9.60;99.90;;;;;;4976882;28;20467;-53
2021/04/18 22:38:26;;;;;;;14.30;11.30;;;9.60;99.90;;;;;;4977712;28;20541;-50
2021/04/18 22:40:53;;;;;;;15.47;11.17;;;9.60;99.90;;;;;;4980131;28;20461;-52
2021/04/18 22:43:19;;;;;;;15.93;11.30;;;9.60;99.90;;;;;;4979941;28;20462;-52
2021/04/18 22:45:45;;;;;;;17.83;10.77;;;9.60;99.90;;;;;;4980416;28;20532;-54
2021/04/18 22:48:12;;;;;;;17.70;12.90;;;9.60;99.90;;;;;;4980212;28;20580;-53
2021/04/18 22:50:38;;;;;;;19.97;13.00;;;9.60;99.90;;;;;;4981100;28;20453;-53
2021/04/18 22:53:04;;;;;;;21.50;12.87;;;9.50;99.90;;;;;;4980544;28;20462;-50
2021/04/18 22:55:31;;;;;;;19.83;11.90;;;9.50;99.90;;;;;;4980902;28;20514;-53
2021/04/18 22:57:58;;;;;;;18.00;10.20;;;9.50;99.90;;;;;;4980728;28;20447;-49